Time;durP1;ratioP1;P1;durP2;ratioP2;P2;SDS_P1;SDS_P2;PMS_P1;PMS_P2;Temp;Humidity;BMP_temperature;BMP_pressure;BME280_temperature;BME280_humidity;BME280_pressure;Samples;Min_cycle;Max_cycle;Signal;HPM_P1;HPM_P2
2022/03/10 00:00:44;;;;;;;11.02;5.85;;;;;;;-0.82;83.45;94799.19;4945046;28;20207;-76
2022/03/10 00:03:11;;;;;;;16.58;7.43;;;;;;;-1.04;83.67;94806.41;4948685;29;20215;-76
2022/03/10 00:05:38;;;;;;;11.95;5.30;;;;;;;-1.18;83.98;94794.59;4952783;28;20221;-77
2022/03/10 00:08:06;;;;;;;13.32;7.20;;;;;;;-1.25;84.58;94794.78;4939927;28;20706;-75
2022/03/10 00:10:34;;;;;;;11.15;6.72;;;;;;;-1.20;84.90;94796.69;4944208;28;20682;-77
2022/03/10 00:13:01;;;;;;;13.38;6.50;;;;;;;-1.13;84.97;94797.31;4936122;29;20211;-76
2022/03/10 00:15:28;;;;;;;13.20;6.90;;;;;;;-1.22;84.57;94794.28;4943683;28;20219;-76
2022/03/10 00:17:55;;;;;;;11.43;6.50;;;;;;;-1.19;84.89;94792.97;4936549;29;20234;-75
2022/03/10 00:20:23;;;;;;;18.95;7.68;;;;;;;-1.13;84.92;94794.66;4944059;28;20203;-77
2022/03/10 00:22:51;;;;;;;17.67;8.38;;;;;;;-1.05;84.42;94791.53;4949223;29;20210;-76
2022/03/10 00:25:19;;;;;;;14.45;7.70;;;;;;;-1.17;84.55;94785.56;4952700;28;20210;-75
2022/03/10 00:27:48;;;;;;;15.45;8.38;;;;;;;-1.28;84.53;94789.16;4952548;28;20239;-75
2022/03/10 00:30:15;;;;;;;17.13;9.07;;;;;;;-1.42;85.44;94788.75;4942334;28;20560;-75
2022/03/10 00:32:44;;;;;;;13.32;8.10;;;;;;;-1.32;85.29;94788.84;4946254;29;20235;-76
2022/03/10 00:35:11;;;;;;;12.98;7.55;;;;;;;-1.54;85.48;94786.22;4933414;29;20218;-75
2022/03/10 00:37:38;;;;;;;10.23;6.13;;;;;;;-1.49;85.56;94794.25;4946586;29;20587;-75
2022/03/10 00:40:06;;;;;;;12.25;6.90;;;;;;;-1.40;84.99;94796.47;4944607;29;20207;-76
2022/03/10 00:42:37;;;;;;;16.88;6.72;;;;;;;-1.40;85.14;94796.47;4953095;28;20207;-75
2022/03/10 00:45:07;;;;;;;15.27;8.07;;;;;;;-1.65;85.81;94789.03;4952993;28;20219;-76
2022/03/10 00:47:34;;;;;;;13.45;6.53;;;;;;;-1.74;86.37;94791.28;4945292;28;20271;-77
2022/03/10 00:50:02;;;;;;;10.82;5.97;;;;;;;-1.85;86.87;94789.56;4946335;29;20234;-76
2022/03/10 00:52:29;;;;;;;12.35;5.97;;;;;;;-1.91;87.12;94779.91;4941024;29;20207;-75
2022/03/10 00:54:56;;;;;;;13.07;6.50;;;;;;;-1.86;87.43;94787.94;4940084;28;20212;-75
2022/03/10 00:57:23;;;;;;;12.48;6.60;;;;;;;-1.71;86.92;94780.19;4944243;28;20219;-75
2022/03/10 00:59:50;;;;;;;11.95;7.60;;;;;;;-1.68;86.91;94774.38;4933088;29;20310;-76
2022/03/10 01:02:18;;;;;;;19.60;7.13;;;;;;;-1.56;86.13;94772.41;4940989;29;20857;-76
2022/03/10 01:04:45;;;;;;;12.23;5.97;;;;;;;-1.50;85.42;94768.72;4940326;28;20215;-75
2022/03/10 01:07:12;;;;;;;12.43;6.20;;;;;;;-1.45;85.81;94765.34;4948333;28;20290;-75
2022/03/10 01:09:38;;;;;;;14.02;7.18;;;;;;;-1.39;85.32;94771.50;4949326;29;20667;-76
2022/03/10 01:12:06;;;;;;;10.75;6.97;;;;;;;-1.27;85.32;94769.53;4945549;29;20214;-76
2022/03/10 01:14:33;;;;;;;14.20;7.80;;;;;;;-1.17;84.97;94775.72;4942546;28;20215;-76
2022/03/10 01:17:00;;;;;;;16.67;8.10;;;;;;;-1.24;84.15;94780.47;4955728;28;20227;-76
2022/03/10 01:19:29;;;;;;;11.90;6.95;;;;;;;-1.53;84.65;94777.22;4942209;28;20229;-76
2022/03/10 01:21:56;;;;;;;10.98;5.97;;;;;;;-1.67;85.33;94781.31;4947094;28;20302;-76
2022/03/10 01:24:24;;;;;;;12.15;6.82;;;;;;;-1.66;85.19;94777.59;4952768;29;20214;-76
2022/03/10 01:26:50;;;;;;;16.27;7.82;;;;;;;-1.59;85.27;94767.56;4946079;28;20259;-76
2022/03/10 01:29:17;;;;;;;14.15;7.68;;;;;;;-1.62;85.86;94768.06;4948978;28;20235;-76
2022/03/10 01:31:45;;;;;;;17.80;7.93;;;;;;;-1.26;84.85;94771.13;4945556;29;20214;-75
2022/03/10 01:34:12;;;;;;;17.50;6.50;;;;;;;-1.11;83.96;94772.09;4942192;28;20243;-75
2022/03/10 01:36:41;;;;;;;14.40;6.65;;;;;;;-1.25;83.42;94762.09;4955946;28;20207;-76
2022/03/10 01:39:08;;;;;;;17.10;6.80;;;;;;;-1.08;84.19;94768.09;4942479;28;20238;-76
2022/03/10 01:41:36;;;;;;;16.52;9.10;;;;;;;-1.10;83.67;94771.03;4955631;28;20558;-75
2022/03/10 01:44:05;;;;;;;12.20;6.28;;;;;;;-1.11;83.65;94763.31;4955337;28;20218;-75
2022/03/10 01:46:32;;;;;;;18.52;8.65;;;;;;;-1.11;83.70;94769.44;4943659;28;20214;-76
2022/03/10 01:49:00;;;;;;;15.00;7.22;;;;;;;-0.86;82.90;94758.22;4948884;28;20606;-75
2022/03/10 01:51:28;;;;;;;19.00;8.63;;;;;;;-1.00;82.94;94769.50;4947621;29;20218;-75
2022/03/10 01:53:56;;;;;;;16.50;7.03;;;;;;;-0.96;82.98;94760.78;4942551;28;20199;-74
2022/03/10 01:56:24;;;;;;;20.52;8.38;;;;;;;-1.03;82.30;94765.50;4943270;28;20207;-74
2022/03/10 01:58:52;;;;;;;19.50;8.73;;;;;;;-0.97;81.96;94750.41;4948624;29;20227;-75
2022/03/10 02:01:19;;;;;;;14.52;7.05;;;;;;;-1.04;82.32;94771.06;4948862;29;20211;-74
2022/03/10 02:03:46;;;;;;;12.63;6.28;;;;;;;-1.12;82.89;94764.34;4942866;29;20211;-76
2022/03/10 02:06:14;;;;;;;18.67;8.25;;;;;;;-1.24;83.37;94769.03;4942297;28;20214;-76
2022/03/10 02:11:39;;;;;;;18.33;9.07;;;;;;;-1.16;82.93;94768.56;4912916;29;20215;-75
2022/03/10 02:19:31;;;;;;;15.82;8.05;;;;;;;-0.79;81.51;94766.78;4938967;29;20253;-75
2022/03/10 02:21:58;;;;;;;17.42;8.85;;;;;;;-0.70;80.59;94769.78;4943727;28;20211;-76
2022/03/10 02:24:27;;;;;;;17.50;7.30;;;;;;;-0.69;80.33;94754.63;4951859;29;20210;-76
2022/03/10 02:26:53;;;;;;;21.70;6.90;;;;;;;-0.90;80.85;94762.44;4943513;28;20216;-76
2022/03/10 02:29:20;;;;;;;15.95;7.28;;;;;;;-0.85;81.83;94765.13;4947889;28;20754;-76
2022/03/10 02:31:47;;;;;;;14.35;7.10;;;;;;;-0.90;81.69;94769.59;4946099;29;20210;-75
2022/03/10 02:34:14;;;;;;;16.33;8.20;;;;;;;-0.85;80.98;94765.13;4949471;28;20238;-74
2022/03/10 02:36:41;;;;;;;13.18;7.13;;;;;;;-0.93;81.65;94773.56;4946225;29;20210;-75
2022/03/10 02:39:08;;;;;;;14.35;7.03;;;;;;;-0.81;80.82;94778.72;4941378;28;20598;-76
2022/03/10 02:41:36;;;;;;;12.43;6.53;;;;;;;-1.43;81.67;94773.88;4964682;28;20210;-75
2022/03/10 02:44:03;;;;;;;10.77;6.45;;;;;;;-1.37;80.84;94775.53;4951038;28;20204;-74
2022/03/10 02:46:30;;;;;;;3.08;2.25;;;;;;;-1.70;82.42;94797.72;4946384;29;20203;-75
2022/03/10 02:48:57;;;;;;;5.63;2.83;;;;;;;-1.91;83.68;94793.19;4941534;28;20246;-75
2022/03/10 02:51:24;;;;;;;10.77;5.55;;;;;;;-2.20;85.05;94790.69;4953740;28;20207;-75
2022/03/10 02:53:51;;;;;;;19.27;7.28;;;;;;;-2.32;84.90;94795.28;4941207;28;20210;-75
2022/03/10 02:56:17;;;;;;;8.45;4.15;;;;;;;-2.54;85.13;94799.72;4942657;28;20214;-75
2022/03/10 02:58:46;;;;;;;8.40;5.20;;;;;;;-2.68;83.98;94798.44;4948157;29;20291;-75
2022/03/10 03:01:12;;;;;;;9.52;3.40;;;;;;;-2.91;83.67;94805.50;4946465;29;20206;-74
2022/03/10 03:03:39;;;;;;;9.48;5.72;;;;;;;-2.93;82.27;94804.94;4935391;28;20214;-76
2022/03/10 03:06:06;;;;;;;6.60;2.15;;;;;;;-2.93;82.05;94804.94;4947133;29;20206;-77
2022/03/10 03:08:33;;;;;;;9.70;3.80;;;;;;;-3.01;80.35;94810.63;4934913;29;20314;-76
2022/03/10 03:11:00;;;;;;;7.35;4.05;;;;;;;-3.04;79.83;94812.94;4934271;29;20212;-77
2022/03/10 03:13:27;;;;;;;12.98;5.88;;;;;;;-3.11;79.24;94815.75;4941086;29;20734;-75
2022/03/10 03:15:55;;;;;;;6.40;3.78;;;;;;;-3.07;79.43;94814.22;4940726;28;20236;-77
2022/03/10 03:18:22;;;;;;;7.68;4.38;;;;;;;-3.20;79.70;94813.72;4941468;29;20199;-74
2022/03/10 03:20:52;;;;;;;10.93;4.13;;;;;;;-3.27;80.45;94808.56;4940895;28;20262;-76
2022/03/10 03:23:19;;;;;;;7.00;4.13;;;;;;;-3.42;80.36;94805.66;4946024;28;20240;-75
2022/03/10 03:25:46;;;;;;;7.70;4.32;;;;;;;-3.44;80.53;94813.03;4948026;29;20650;-77
2022/03/10 03:28:13;;;;;;;7.10;3.30;;;;;;;-3.48;80.23;94817.16;4946065;28;20231;-75
2022/03/10 03:30:39;;;;;;;7.25;3.42;;;;;;;-3.56;80.32;94818.34;4946913;29;20210;-76
2022/03/10 03:33:08;;;;;;;7.10;3.42;;;;;;;-3.60;79.58;94823.31;4941312;29;20234;-77
2022/03/10 03:35:35;;;;;;;13.30;5.05;;;;;;;-3.62;80.43;94816.63;4938765;28;20207;-77
2022/03/10 03:38:02;;;;;;;7.63;4.22;;;;;;;-3.64;81.50;94824.81;4942254;29;20572;-76
2022/03/10 03:40:28;;;;;;;6.75;2.60;;;;;;;-3.69;79.69;94832.63;4940879;28;20203;-76
2022/03/10 03:42:55;;;;;;;3.45;2.35;;;;;;;-3.78;79.19;94828.75;4952561;28;20203;-76
2022/03/10 03:45:22;;;;;;;8.18;2.95;;;;;;;-3.69;77.63;94826.56;4950349;28;20219;-76
2022/03/10 03:47:49;;;;;;;5.47;2.47;;;;;;;-3.62;77.84;94825.38;4941989;29;20326;-76
2022/03/10 03:50:18;;;;;;;6.70;3.97;;;;;;;-3.69;78.70;94822.03;4939789;28;20210;-76
2022/03/10 03:52:44;;;;;;;4.78;3.03;;;;;;;-3.63;79.13;94821.13;4943976;28;20253;-78
2022/03/10 03:55:12;;;;;;;7.03;4.38;;;;;;;-3.44;79.19;94828.91;4946853;29;20210;-76
2022/03/10 03:57:42;;;;;;;11.80;3.40;;;;;;;-3.47;78.14;94829.38;4943228;29;20213;-76
2022/03/10 04:00:11;;;;;;;5.18;2.20;;;;;;;-3.50;74.70;94840.41;4950241;28;20210;-77
2022/03/10 04:02:38;;;;;;;3.70;2.15;;;;;;;-3.64;75.59;94843.34;4933419;29;20204;-77
2022/03/10 04:05:06;;;;;;;20.50;3.45;;;;;;;-3.87;76.03;94839.94;4946631;29;20204;-77
2022/03/10 04:07:34;;;;;;;4.40;1.63;;;;;;;-3.83;77.47;94847.19;4943539;29;20297;-77
2022/03/10 04:10:01;;;;;;;5.88;3.58;;;;;;;-3.77;78.34;94851.53;4940165;28;20217;-76
2022/03/10 04:12:28;;;;;;;6.38;3.78;;;;;;;-3.75;78.18;94860.03;4952454;28;20210;-76
2022/03/10 04:14:59;;;;;;;8.43;3.28;;;;;;;-3.66;76.64;94853.34;4948820;28;20235;-77
2022/03/10 04:17:25;;;;;;;7.75;4.30;;;;;;;-3.62;78.10;94853.69;4944903;29;20595;-76
2022/03/10 04:19:52;;;;;;;5.60;3.28;;;;;;;-3.67;78.43;94846.44;4939831;28;20685;-77
2022/03/10 04:22:20;;;;;;;8.63;3.25;;;;;;;-3.81;76.65;94850.38;4940917;28;20241;-77
2022/03/10 04:24:54;;;;;;;5.63;3.30;;;;;;;-3.71;78.18;94850.63;4937329;28;20211;-77
2022/03/10 04:27:21;;;;;;;4.95;2.97;;;;;;;-3.45;76.83;94853.75;4937730;29;20226;-77
2022/03/10 04:29:48;;;;;;;7.35;3.40;;;;;;;-3.37;75.17;94861.34;4945878;28;20199;-77
2022/03/10 04:32:15;;;;;;;6.38;2.78;;;;;;;-3.42;74.53;94854.09;4943557;29;20198;-77
2022/03/10 04:34:42;;;;;;;6.82;3.55;;;;;;;-3.48;75.49;94859.53;4945670;28;20200;-77
2022/03/10 04:37:09;;;;;;;4.60;3.00;;;;;;;-3.44;73.81;94852.72;4946007;29;20666;-77
2022/03/10 04:39:36;;;;;;;1.60;1.10;;;;;;;-3.47;73.30;94863.78;4941043;28;20214;-79
2022/03/10 04:42:04;;;;;;;4.00;2.28;;;;;;;-3.71;74.44;94861.19;4968362;28;20596;-77
2022/03/10 04:44:31;;;;;;;3.85;2.33;;;;;;;-3.67;74.11;94867.63;4951350;28;20211;-76
2022/03/10 04:46:58;;;;;;;9.25;3.00;;;;;;;-3.69;74.45;94874.97;4947235;28;20687;-76
2022/03/10 04:49:25;;;;;;;4.88;3.03;;;;;;;-3.74;75.13;94871.44;4944116;28;20250;-75
2022/03/10 04:51:52;;;;;;;5.63;3.22;;;;;;;-3.63;75.79;94876.72;4942733;29;20208;-77
2022/03/10 04:54:19;;;;;;;4.90;3.22;;;;;;;-3.76;76.50;94879.59;4945166;29;20199;-77
2022/03/10 04:56:47;;;;;;;5.25;2.45;;;;;;;-3.69;75.79;94884.78;4942970;28;20212;-78
2022/03/10 04:59:15;;;;;;;7.47;2.58;;;;;;;-3.85;75.77;94896.88;4946984;28;20325;-77
2022/03/10 05:01:42;;;;;;;2.38;1.92;;;;;;;-3.79;74.98;94895.94;4949973;29;20231;-77
2022/03/10 05:04:09;;;;;;;6.30;2.83;;;;;;;-3.83;75.58;94894.81;4946811;29;20211;-78
2022/03/10 05:06:36;;;;;;;6.00;2.60;;;;;;;-3.79;75.22;94906.53;4952011;28;20204;-77
2022/03/10 05:09:03;;;;;;;6.50;3.03;;;;;;;-3.39;75.18;94897.81;4936451;29;20231;-77
2022/03/10 05:11:30;;;;;;;4.65;2.78;;;;;;;-2.35;71.99;94895.78;4952994;29;20651;-77
2022/03/10 05:13:56;;;;;;;6.88;3.55;;;;;;;-1.66;68.87;94899.75;4945879;28;20230;-77
2022/03/10 05:16:25;;;;;;;5.82;3.72;;;;;;;-1.54;68.39;94911.06;4949759;29;20415;-77
2022/03/10 05:18:51;;;;;;;8.48;2.95;;;;;;;-0.89;66.65;94904.94;4946903;29;20219;-76
2022/03/10 05:21:18;;;;;;;8.43;4.45;;;;;;;0.40;63.96;94893.28;4942555;28;20702;-76
2022/03/10 05:23:45;;;;;;;10.90;5.32;;;;;;;0.50;61.36;94898.66;4943980;28;20594;-76
2022/03/10 05:26:12;;;;;;;10.32;4.95;;;;;;;0.70;61.75;94909.41;4947256;29;20226;-76
2022/03/10 05:28:39;;;;;;;6.53;3.83;;;;;;;0.40;62.03;94911.94;4945788;29;20242;-76
2022/03/10 05:31:05;;;;;;;8.50;4.50;;;;;;;-0.18;63.21;94921.63;4941819;28;20215;-77
2022/03/10 05:33:34;;;;;;;7.97;4.55;;;;;;;-0.37;64.19;94928.34;4954386;28;20336;-76
2022/03/10 05:36:01;;;;;;;19.05;8.23;;;;;;;-0.25;66.10;94934.31;4941583;28;20207;-76
2022/03/10 05:38:28;;;;;;;10.98;6.13;;;;;;;0.03;65.40;94922.56;4944729;28;20381;-76
2022/03/10 05:40:55;;;;;;;9.35;4.57;;;;;;;-0.93;64.57;94951.69;4953249;28;20207;-76
2022/03/10 05:43:22;;;;;;;7.57;3.70;;;;;;;-1.14;65.59;94961.28;4955575;28;20234;-75
2022/03/10 05:45:49;;;;;;;7.75;3.97;;;;;;;-1.93;68.08;94963.31;4949512;28;20215;-77
2022/03/10 05:48:16;;;;;;;7.63;3.97;;;;;;;-2.19;70.29;94954.13;4936462;29;20294;-76
2022/03/10 05:50:44;;;;;;;3.67;2.25;;;;;;;-2.04;69.71;94955.41;4949150;29;20284;-75
2022/03/10 05:53:11;;;;;;;2.65;2.22;;;;;;;-2.24;69.80;94958.56;4948440;29;20203;-76
2022/03/10 05:55:38;;;;;;;4.07;2.72;;;;;;;-2.17;69.66;94960.00;4936088;28;20212;-76
2022/03/10 05:58:05;;;;;;;2.08;1.55;;;;;;;-2.24;70.22;94959.34;4948226;29;20203;-77
2022/03/10 06:00:32;;;;;;;4.72;2.83;;;;;;;-2.60;70.86;94967.75;4942515;29;20203;-76
2022/03/10 06:02:59;;;;;;;2.92;1.70;;;;;;;-2.43;68.89;94973.06;4941913;28;20211;-79
2022/03/10 06:05:26;;;;;;;4.13;2.88;;;;;;;-2.36;68.35;94969.22;4948344;28;20208;-75
2022/03/10 06:07:54;;;;;;;8.82;2.45;;;;;;;-2.03;68.05;94972.94;4948428;29;20301;-75
2022/03/10 06:10:22;;;;;;;2.88;2.05;;;;;;;-1.68;66.53;94970.06;4942834;29;20689;-76
2022/03/10 06:12:49;;;;;;;4.07;2.38;;;;;;;-1.58;65.41;94971.03;4941395;28;20267;-76
2022/03/10 06:15:16;;;;;;;2.20;1.65;;;;;;;-1.00;62.82;94972.34;4946801;28;20203;-76
2022/03/10 06:17:43;;;;;;;7.45;4.63;;;;;;;-0.26;60.87;94964.63;4947959;29;20217;-76
2022/03/10 06:20:11;;;;;;;3.85;1.70;;;;;;;0.30;57.73;94965.13;4935369;29;20207;-76
2022/03/10 06:22:38;;;;;;;2.05;1.50;;;;;;;-0.04;58.57;94970.72;4947951;29;20581;-75
2022/03/10 06:25:09;;;;;;;2.97;1.27;;;;;;;0.44;58.15;94973.50;4943421;29;20467;-75
2022/03/10 06:27:35;;;;;;;3.83;2.08;;;;;;;0.69;57.20;94963.78;4940869;28;20203;-76
2022/03/10 06:30:04;;;;;;;7.25;2.88;;;;;;;1.01;56.38;94970.91;4945634;28;20291;-75
2022/03/10 06:32:31;;;;;;;3.88;1.73;;;;;;;1.74;54.02;94972.53;4948023;29;20326;-75
2022/03/10 06:34:59;;;;;;;7.30;3.50;;;;;;;3.62;53.70;94960.78;4944568;29;20195;-75
2022/03/10 06:37:26;;;;;;;4.03;2.28;;;;;;;5.46;46.00;94962.47;4941529;28;20203;-76
2022/03/10 06:39:53;;;;;;;4.82;2.65;;;;;;;5.70;47.02;94957.84;4944490;28;20219;-76
2022/03/10 06:42:22;;;;;;;9.15;3.50;;;;;;;5.49;48.09;94956.50;4965134;28;20243;-77
2022/03/10 06:44:49;;;;;;;6.10;3.70;;;;;;;5.86;44.49;94955.78;4943487;28;20227;-76
2022/03/10 06:47:16;;;;;;;1.95;1.35;;;;;;;4.58;46.74;94973.53;4947964;29;20211;-75
2022/03/10 06:49:44;;;;;;;7.88;4.63;;;;;;;4.97;48.26;94971.56;4943485;29;20242;-76
2022/03/10 06:52:10;;;;;;;6.68;2.60;;;;;;;5.29;47.33;94973.66;4941194;28;20218;-75
2022/03/10 06:54:38;;;;;;;4.90;2.08;;;;;;;5.26;44.58;94976.09;4943140;28;20208;-75
2022/03/10 06:57:05;;;;;;;5.95;2.92;;;;;;;5.53;42.54;94973.66;4947695;29;20211;-75
2022/03/10 06:59:33;;;;;;;8.45;3.20;;;;;;;5.06;46.54;94984.41;4945901;29;20313;-75
2022/03/10 07:02:00;;;;;;;4.90;2.03;;;;;;;5.53;44.68;94979.03;4940624;28;20206;-74
2022/03/10 07:04:27;;;;;;;7.88;4.20;;;;;;;5.12;43.55;94977.88;4941617;28;20567;-75
2022/03/10 07:06:54;;;;;;;5.30;2.97;;;;;;;3.82;47.47;95004.34;4950242;28;20622;-80
2022/03/10 07:09:21;;;;;;;5.72;2.67;;;;;;;4.02;46.33;95003.44;4953531;28;20238;-82
2022/03/10 07:11:48;;;;;;;7.35;3.20;;;;;;;4.02;49.27;95000.75;4961453;28;20285;-83
2022/03/10 07:14:15;;;;;;;6.63;3.63;;;;;;;3.31;50.82;95001.06;4953513;28;20234;-77
2022/03/10 07:16:44;;;;;;;3.33;1.85;;;;;;;3.25;48.92;95009.41;4948150;28;20204;-78
2022/03/10 07:19:12;;;;;;;4.13;2.40;;;;;;;2.08;51.20;95007.56;4949520;29;20211;-80
2022/03/10 07:21:39;;;;;;;2.35;1.75;;;;;;;1.44;49.59;95017.81;4946596;28;20214;-80
2022/03/10 07:24:07;;;;;;;5.45;3.33;;;;;;;1.17;57.20;95023.28;4947241;28;20238;-80
2022/03/10 07:26:34;;;;;;;4.50;2.55;;;;;;;2.33;58.05;95008.66;4941046;29;20222;-80
2022/03/10 07:29:01;;;;;;;6.25;3.17;;;;;;;1.87;53.51;95021.97;4939826;28;20232;-77
2022/03/10 07:31:28;;;;;;;8.20;4.43;;;;;;;1.79;56.52;95017.13;4945624;28;20208;-78
2022/03/10 07:33:56;;;;;;;8.98;3.40;;;;;;;2.22;57.82;95012.41;4946282;29;20238;-78
2022/03/10 07:36:23;;;;;;;7.35;3.05;;;;;;;1.49;53.18;95022.38;4941420;29;20685;-84
2022/03/10 07:38:50;;;;;;;6.05;2.63;;;;;;;1.51;54.38;95022.91;4939877;28;20215;-77
2022/03/10 07:41:17;;;;;;;7.60;3.75;;;;;;;1.18;51.10;95024.91;4952744;28;20203;-82
2022/03/10 07:43:44;;;;;;;3.65;1.83;;;;;;;0.44;49.28;95024.91;4952431;28;20242;-84
2022/03/10 07:46:11;;;;;;;3.35;1.42;;;;;;;-0.76;50.93;95040.19;4942571;29;20246;-79
2022/03/10 07:48:38;;;;;;;1.77;1.30;;;;;;;-0.77;53.31;95035.91;4946573;29;20234;-77
2022/03/10 07:51:06;;;;;;;3.28;1.33;;;;;;;-0.50;49.88;95045.81;4943061;29;20210;-80
2022/03/10 07:53:33;;;;;;;1.77;0.95;;;;;;;-0.37;50.91;95045.44;4951868;29;20207;-81
2022/03/10 07:56:01;;;;;;;1.50;1.40;;;;;;;-0.31;48.30;95043.66;4942913;28;20208;-82
2022/03/10 07:58:29;;;;;;;2.60;1.45;;;;;;;-0.61;49.25;95054.72;4946497;29;20244;-83
2022/03/10 08:00:57;;;;;;;2.55;1.08;;;;;;;-1.08;50.41;95052.50;4942708;29;20207;-79
2022/03/10 08:03:25;;;;;;;2.55;1.25;;;;;;;-1.13;47.95;95057.75;4940166;28;20199;-79
2022/03/10 08:05:52;;;;;;;1.55;1.02;;;;;;;-0.79;49.67;95048.66;4942105;28;20204;-78
2022/03/10 08:08:20;;;;;;;2.63;1.77;;;;;;;-0.32;50.94;95050.03;4937964;29;20203;-78
2022/03/10 08:10:48;;;;;;;3.50;1.33;;;;;;;-0.32;47.94;95052.69;4941663;28;20239;-79
2022/03/10 08:13:15;;;;;;;1.25;0.90;;;;;;;0.33;48.51;95039.22;4938895;29;20230;-81
2022/03/10 08:15:43;;;;;;;1.15;0.90;;;;;;;0.43;45.65;95038.50;4942061;28;20199;-79
2022/03/10 08:18:10;;;;;;;2.42;1.35;;;;;;;0.31;50.78;95031.47;4945778;29;20218;-81
2022/03/10 08:20:39;;;;;;;3.05;2.17;;;;;;;0.25;47.31;95053.00;4945104;29;20268;-85
2022/03/10 08:23:06;;;;;;;3.80;2.20;;;;;;;0.82;57.72;95047.09;4940749;28;20322;-85
2022/03/10 08:25:34;;;;;;;3.35;1.75;;;;;;;0.30;48.51;95055.69;4940445;28;20208;-84
2022/03/10 08:28:02;;;;;;;3.45;2.08;;;;;;;0.46;50.51;95038.81;4947301;29;20208;-82
2022/03/10 08:30:29;;;;;;;1.23;0.90;;;;;;;0.43;48.61;95043.81;4946028;29;20662;-83
2022/03/10 08:32:57;;;;;;;1.55;0.88;;;;;;;0.18;49.19;95053.19;4934813;29;20243;-84
2022/03/10 08:35:24;;;;;;;5.25;1.90;;;;;;;-0.43;48.22;95073.84;4948716;28;20233;-82
2022/03/10 08:37:50;;;;;;;3.33;2.03;;;;;;;0.22;50.92;95048.19;4945503;28;20214;-82
2022/03/10 08:40:19;;;;;;;1.05;0.90;;;;;;;0.37;48.11;95048.31;4946177;28;20219;-76
2022/03/10 08:42:49;;;;;;;4.15;1.25;;;;;;;-0.42;50.72;95048.06;4951278;28;20288;-77
2022/03/10 08:45:17;;;;;;;2.33;1.23;;;;;;;-0.66;50.11;95062.63;4954774;28;20270;-81
2022/03/10 08:47:44;;;;;;;1.30;1.10;;;;;;;-0.90;52.04;95072.69;4944214;28;20212;-81
2022/03/10 08:50:12;;;;;;;2.08;1.65;;;;;;;-0.99;53.86;95059.03;4945279;28;20242;-82
2022/03/10 08:52:39;;;;;;;0.82;0.70;;;;;;;-1.05;52.31;95069.81;4942368;29;20207;-78
2022/03/10 08:55:07;;;;;;;1.42;0.90;;;;;;;-1.01;54.01;95071.75;4938720;28;20200;-82
2022/03/10 08:57:34;;;;;;;2.47;1.52;;;;;;;-0.57;53.77;95066.50;4944401;28;20203;-79
2022/03/10 09:00:02;;;;;;;2.75;1.35;;;;;;;-0.40;53.46;95067.22;4948802;28;20222;-78
2022/03/10 09:02:29;;;;;;;2.58;1.48;;;;;;;-0.21;54.77;95054.41;4941562;29;20685;-81
2022/03/10 09:04:56;;;;;;;3.20;2.08;;;;;;;0.02;54.37;95055.97;4939167;28;20207;-83
2022/03/10 09:07:23;;;;;;;2.45;1.65;;;;;;;0.31;54.83;95049.31;4943040;28;20208;-81
2022/03/10 09:09:50;;;;;;;1.85;1.38;;;;;;;0.46;50.34;95048.66;4932708;28;20243;-79
2022/03/10 09:12:17;;;;;;;5.45;2.00;;;;;;;0.08;50.89;95046.97;4943624;28;20340;-76
2022/03/10 09:14:44;;;;;;;4.15;1.80;;;;;;;0.70;49.16;95042.72;4952021;28;20675;-78
2022/03/10 09:17:13;;;;;;;4.57;2.22;;;;;;;0.30;50.23;95035.19;4951818;28;20662;-78
2022/03/10 09:19:40;;;;;;;2.83;1.75;;;;;;;0.21;52.01;95035.91;4952035;28;20203;-80
2022/03/10 09:22:07;;;;;;;2.97;1.15;;;;;;;-0.22;49.45;95053.59;4942177;28;20295;-80
2022/03/10 09:24:33;;;;;;;4.55;2.35;;;;;;;-0.02;51.83;95043.16;4945999;28;20231;-78
2022/03/10 09:27:00;;;;;;;1.75;0.95;;;;;;;0.09;49.75;95043.25;4945600;29;20214;-78
2022/03/10 09:29:27;;;;;;;1.10;0.82;;;;;;;-0.45;49.23;95038.72;4942291;28;20609;-77
2022/03/10 09:31:54;;;;;;;1.90;1.25;;;;;;;-0.79;51.64;95053.16;4944483;28;20207;-77
2022/03/10 09:34:22;;;;;;;1.40;0.93;;;;;;;-0.59;50.68;95044.66;4956977;28;20227;-77
2022/03/10 09:36:49;;;;;;;3.83;1.60;;;;;;;-0.54;52.13;95044.69;4953330;28;20195;-78
2022/03/10 09:39:17;;;;;;;2.53;1.10;;;;;;;-0.77;49.45;95041.22;4963735;28;20207;-76
2022/03/10 09:41:45;;;;;;;4.72;1.15;;;;;;;-0.80;49.19;95063.00;4954581;28;20266;-79
2022/03/10 09:44:14;;;;;;;2.22;1.50;;;;;;;-0.91;48.63;95063.91;4948595;28;20315;-76
2022/03/10 09:46:41;;;;;;;3.13;1.83;;;;;;;-0.81;48.88;95072.03;4948336;29;20300;-77
2022/03/10 09:49:09;;;;;;;2.63;1.50;;;;;;;-0.69;48.54;95063.16;4948447;28;20211;-78
2022/03/10 09:51:37;;;;;;;1.73;1.33;;;;;;;-0.61;47.85;95057.38;4941666;28;20203;-78
2022/03/10 09:54:04;;;;;;;0.38;0.38;;;;;;;-0.34;46.86;95055.59;4942800;29;20206;-78
2022/03/10 09:56:32;;;;;;;3.53;1.33;;;;;;;0.10;48.23;95052.88;4941812;28;20254;-80
2022/03/10 09:58:58;;;;;;;2.40;1.48;;;;;;;0.22;45.77;95058.84;4954173;28;20222;-76
2022/03/10 10:01:25;;;;;;;1.70;1.00;;;;;;;0.06;46.89;95043.75;4941232;28;20211;-77
2022/03/10 10:03:52;;;;;;;0.77;0.77;;;;;;;-0.06;46.09;95060.69;4946306;28;20593;-76
2022/03/10 10:06:19;;;;;;;0.95;0.95;;;;;;;-0.29;46.07;95068.97;4948080;29;20207;-80
2022/03/10 10:08:54;;;;;;;1.77;1.02;;;;;;;-0.37;46.84;95064.06;4943430;29;20199;-76
2022/03/10 10:11:31;;;;;;;2.40;0.98;;;;;;;0.14;47.11;95056.59;4938654;28;20238;-76
2022/03/10 10:13:58;;;;;;;6.13;2.92;;;;;;;0.39;46.43;95056.88;4945724;29;20202;-76
2022/03/10 10:16:27;;;;;;;5.35;2.28;;;;;;;0.34;46.77;95046.16;4948643;28;20686;-77
2022/03/10 10:18:58;;;;;;;1.50;1.20;;;;;;;0.12;45.44;95059.56;4943549;28;20208;-79
2022/03/10 10:21:26;;;;;;;1.00;0.80;;;;;;;0.30;45.91;95059.19;4950451;28;20211;-82
2022/03/10 10:23:56;;;;;;;2.40;1.33;;;;;;;0.10;45.03;95066.19;4963208;28;20218;-78
2022/03/10 10:26:26;;;;;;;2.35;1.23;;;;;;;0.25;45.92;95063.66;4949241;28;20590;-82
2022/03/10 10:28:54;;;;;;;1.35;1.00;;;;;;;0.17;46.09;95056.13;4949118;28;20203;-83
2022/03/10 10:31:24;;;;;;;2.65;1.88;;;;;;;-0.04;47.22;95071.09;4952413;28;20635;-76
2022/03/10 10:34:01;;;;;;;2.40;1.10;;;;;;;-0.45;48.38;95080.47;4958934;28;20242;-74
2022/03/10 10:36:29;;;;;;;2.38;1.25;;;;;;;-0.48;49.46;95086.28;4951168;28;20217;-81
2022/03/10 10:39:05;;;;;;;7.90;1.63;;;;;;;-0.68;49.57;95080.72;4955377;28;20286;-77
2022/03/10 10:41:33;;;;;;;2.67;1.70;;;;;;;-0.58;49.19;95080.84;4955885;28;20194;-77
2022/03/10 10:44:02;;;;;;;2.83;1.83;;;;;;;-0.46;48.31;95086.84;4952122;28;20230;-75
2022/03/10 10:46:31;;;;;;;4.25;1.33;;;;;;;-0.58;48.18;95092.28;4935064;29;20207;-80
2022/03/10 10:49:00;;;;;;;2.08;1.55;;;;;;;-0.54;47.47;95087.25;4947429;29;20203;-76
2022/03/10 10:51:30;;;;;;;2.33;1.67;;;;;;;-0.47;49.05;95071.94;4945995;29;20702;-76
2022/03/10 10:54:01;;;;;;;2.17;1.48;;;;;;;-0.05;49.02;95064.97;4939649;29;20582;-77
2022/03/10 10:56:28;;;;;;;1.45;1.17;;;;;;;0.09;46.19;95069.91;4952209;28;20240;-75
2022/03/10 10:58:56;;;;;;;1.15;0.95;;;;;;;0.08;46.67;95077.06;4943058;28;20211;-75
2022/03/10 11:01:43;;;;;;;4.55;1.55;;;;;;;-0.06;46.27;95063.34;4937561;28;20217;-78
2022/03/10 11:04:10;;;;;;;2.08;1.15;;;;;;;-0.14;46.00;95065.69;4960136;28;20214;-77
2022/03/10 11:06:39;;;;;;;2.28;1.25;;;;;;;-0.30;45.11;95066.56;4952504;28;20211;-79
2022/03/10 11:09:07;;;;;;;1.50;0.95;;;;;;;-0.25;45.63;95064.72;4943477;28;20208;-77
2022/03/10 11:11:36;;;;;;;2.05;1.48;;;;;;;0.18;45.78;95047.06;4946210;28;20239;-77
2022/03/10 11:14:03;;;;;;;3.88;1.85;;;;;;;0.08;44.30;95062.97;4944440;29;20619;-77
2022/03/10 11:16:30;;;;;;;4.10;1.35;;;;;;;0.27;45.28;95056.22;4940611;28;20211;-79
2022/03/10 11:18:59;;;;;;;1.75;1.27;;;;;;;0.38;45.88;95044.59;4941724;28;20223;-72
2022/03/10 11:21:56;;;;;;;5.07;1.83;;;;;;;0.12;46.88;95067.53;4949943;28;20211;-77
2022/03/10 11:24:44;;;;;;;3.22;1.10;;;;;;;0.09;45.28;95053.91;4935119;28;20652;-79
2022/03/10 11:27:15;;;;;;;1.73;1.15;;;;;;;-0.21;44.73;95049.88;4933987;29;20211;-78
2022/03/10 11:29:46;;;;;;;2.03;1.45;;;;;;;-0.01;45.65;95054.63;4940018;29;20199;-82
2022/03/10 11:32:13;;;;;;;1.88;1.48;;;;;;;0.10;46.44;95044.88;4939986;28;20200;-80
2022/03/10 11:34:51;;;;;;;4.60;1.33;;;;;;;0.46;47.27;95049.47;4945897;28;20666;-75
2022/03/10 11:37:49;;;;;;;2.13;1.65;;;;;;;0.43;45.37;95055.28;4948570;28;20301;-77
2022/03/10 11:40:19;;;;;;;1.65;1.17;;;;;;;0.19;46.42;95067.31;4956436;28;20206;-81
2022/03/10 11:42:46;;;;;;;1.38;0.80;;;;;;;-0.09;47.10;95063.84;4952868;28;20245;-78
2022/03/10 11:45:16;;;;;;;1.98;1.13;;;;;;;0.01;48.32;95063.16;4950362;29;20207;-79